Plaza, North Carolina
Current Conditions -  °F | °C
As of 5:54 PM on Saturday 20 Dec 2014 (Local Time) from KGSO Reporting Station
Overcast Overcast  
Wind Chill: 38°   Ceiling: 4200
Heat Index: 38°   Visibility: 8mi
Dew Point: 32°   Wind: 3mph
Humidity: 79%   Direction: 80°E
Pressure: 30.22"   Gusts: NA
Location:  36.1026°N, 79.8146°W
Report Text: KGSO 202254Z 08003KT 8SM FEW035 BKN042 OVC065 03/00 A3022 RMK AO2 SLP240 T00330000
Loading
Personal Weather Stations






























Interactive Weather Map New forecast layout! Learn more

10-Day Weather Forecast

Advertisements
Track Severe Weather on mobile